sensor_id;sensor_type;location;lat;lon;timestamp;P1;durP1;ratioP1;P2;durP2;ratioP2
9436;SDS011;4757;59.334;18.034;2023-04-06T12:54:24;7.33;;;2.03;;
9436;SDS011;4757;59.334;18.034;2023-04-06T12:57:06;8.43;;;2.17;;
9436;SDS011;4757;59.334;18.034;2023-04-06T12:59:36;12.47;;;2.70;;
9436;SDS011;4757;59.334;18.034;2023-04-06T13:02:19;7.40;;;2.40;;
9436;SDS011;4757;59.334;18.034;2023-04-06T13:05:01;16.33;;;3.63;;
9436;SDS011;4757;59.334;18.034;2023-04-06T13:07:52;18.27;;;2.63;;
9436;SDS011;4757;59.334;18.034;2023-04-06T13:19:07;9.77;;;2.10;;
9436;SDS011;4757;59.334;18.034;2023-04-06T13:25:00;11.00;;;2.47;;
9436;SDS011;4757;59.334;18.034;2023-04-06T13:27:43;3.53;;;2.53;;
9436;SDS011;4757;59.334;18.034;2023-04-06T13:30:28;15.37;;;4.27;;
9436;SDS011;4757;59.334;18.034;2023-04-06T13:36:22;13.13;;;3.53;;
9436;SDS011;4757;59.334;18.034;2023-04-06T20:20:54;2.90;;;2.50;;
9436;SDS011;4757;59.334;18.034;2023-04-06T20:23:21;2.33;;;2.13;;
9436;SDS011;4757;59.334;18.034;2023-04-06T20:25:57;2.07;;;1.90;;
9436;SDS011;4757;59.334;18.034;2023-04-06T20:28:27;4.07;;;3.67;;
9436;SDS011;4757;59.334;18.034;2023-04-06T20:30:56;2.93;;;2.10;;
9436;SDS011;4757;59.334;18.034;2023-04-06T20:33:23;2.80;;;2.50;;
9436;SDS011;4757;59.334;18.034;2023-04-06T20:35:55;1.80;;;1.60;;
9436;SDS011;4757;59.334;18.034;2023-04-06T20:38:26;3.63;;;2.00;;
9436;SDS011;4757;59.334;18.034;2023-04-06T20:40:57;2.23;;;2.00;;
9436;SDS011;4757;59.334;18.034;2023-04-06T20:43:25;1.97;;;1.73;;
9436;SDS011;4757;59.334;18.034;2023-04-06T20:45:55;2.67;;;1.73;;
9436;SDS011;4757;59.334;18.034;2023-04-06T20:48:27;1.77;;;1.63;;
9436;SDS011;4757;59.334;18.034;2023-04-06T20:51:03;1.57;;;1.47;;
9436;SDS011;4757;59.334;18.034;2023-04-06T20:53:33;1.03;;;0.90;;
9436;SDS011;4757;59.334;18.034;2023-04-06T20:56:01;2.33;;;1.63;;
9436;SDS011;4757;59.334;18.034;2023-04-06T20:58:33;1.90;;;1.70;;
9436;SDS011;4757;59.334;18.034;2023-04-06T21:01:00;2.17;;;1.97;;
9436;SDS011;4757;59.334;18.034;2023-04-06T21:03:27;1.57;;;1.40;;
9436;SDS011;4757;59.334;18.034;2023-04-06T21:06:01;2.67;;;2.00;;
9436;SDS011;4757;59.334;18.034;2023-04-06T21:08:29;2.10;;;1.50;;
9436;SDS011;4757;59.334;18.034;2023-04-06T21:10:56;1.87;;;1.63;;
9436;SDS011;4757;59.334;18.034;2023-04-06T21:13:26;1.50;;;1.40;;
9436;SDS011;4757;59.334;18.034;2023-04-06T21:18:31;2.07;;;1.90;;
9436;SDS011;4757;59.334;18.034;2023-04-06T21:21:00;1.90;;;1.40;;
9436;SDS011;4757;59.334;18.034;2023-04-06T21:23:27;1.73;;;1.50;;
9436;SDS011;4757;59.334;18.034;2023-04-06T21:25:54;1.30;;;1.20;;
9436;SDS011;4757;59.334;18.034;2023-04-06T21:28:25;1.40;;;1.30;;
9436;SDS011;4757;59.334;18.034;2023-04-06T21:30:58;0.73;;;0.73;;
9436;SDS011;4757;59.334;18.034;2023-04-06T21:33:30;2.37;;;1.50;;
9436;SDS011;4757;59.334;18.034;2023-04-06T21:36:05;4.03;;;1.73;;
9436;SDS011;4757;59.334;18.034;2023-04-06T21:38:34;1.70;;;1.40;;
9436;SDS011;4757;59.334;18.034;2023-04-06T21:41:01;1.47;;;1.37;;
9436;SDS011;4757;59.334;18.034;2023-04-06T21:43:32;1.30;;;1.20;;
9436;SDS011;4757;59.334;18.034;2023-04-06T21:46:04;3.70;;;2.13;;
9436;SDS011;4757;59.334;18.034;2023-04-06T21:50:59;3.00;;;1.50;;
9436;SDS011;4757;59.334;18.034;2023-04-06T21:53:33;1.30;;;1.20;;
9436;SDS011;4757;59.334;18.034;2023-04-06T21:56:00;1.90;;;1.70;;
9436;SDS011;4757;59.334;18.034;2023-04-06T21:58:41;1.00;;;0.97;;
9436;SDS011;4757;59.334;18.034;2023-04-06T22:01:11;0.90;;;0.90;;
9436;SDS011;4757;59.334;18.034;2023-04-06T22:03:38;1.67;;;1.57;;
9436;SDS011;4757;59.334;18.034;2023-04-06T22:06:06;1.60;;;1.50;;
9436;SDS011;4757;59.334;18.034;2023-04-06T22:08:33;2.10;;;1.90;;
9436;SDS011;4757;59.334;18.034;2023-04-06T22:11:04;1.73;;;1.63;;
9436;SDS011;4757;59.334;18.034;2023-04-06T22:13:34;2.73;;;2.00;;
9436;SDS011;4757;59.334;18.034;2023-04-06T22:16:01;1.70;;;1.60;;
9436;SDS011;4757;59.334;18.034;2023-04-06T22:18:29;2.17;;;1.60;;
9436;SDS011;4757;59.334;18.034;2023-04-06T22:21:12;1.70;;;1.57;;
9436;SDS011;4757;59.334;18.034;2023-04-06T22:23:39;1.70;;;1.60;;
9436;SDS011;4757;59.334;18.034;2023-04-06T22:26:08;1.70;;;1.47;;
9436;SDS011;4757;59.334;18.034;2023-04-06T22:28:36;1.87;;;1.73;;
9436;SDS011;4757;59.334;18.034;2023-04-06T22:31:03;1.90;;;1.80;;
9436;SDS011;4757;59.334;18.034;2023-04-06T22:33:30;2.53;;;1.77;;
9436;SDS011;4757;59.334;18.034;2023-04-06T22:35:57;1.70;;;1.60;;
9436;SDS011;4757;59.334;18.034;2023-04-06T22:38:25;2.40;;;1.90;;
9436;SDS011;4757;59.334;18.034;2023-04-06T22:40:52;2.30;;;2.10;;
9436;SDS011;4757;59.334;18.034;2023-04-06T22:43:19;2.30;;;1.80;;
9436;SDS011;4757;59.334;18.034;2023-04-06T22:45:46;2.00;;;1.90;;
9436;SDS011;4757;59.334;18.034;2023-04-06T22:48:13;1.83;;;1.70;;
9436;SDS011;4757;59.334;18.034;2023-04-06T22:50:40;1.50;;;1.40;;
9436;SDS011;4757;59.334;18.034;2023-04-06T22:53:07;1.63;;;1.53;;
9436;SDS011;4757;59.334;18.034;2023-04-06T22:55:34;2.10;;;1.90;;
9436;SDS011;4757;59.334;18.034;2023-04-06T22:58:04;2.17;;;1.90;;
9436;SDS011;4757;59.334;18.034;2023-04-06T23:00:31;2.47;;;2.10;;
9436;SDS011;4757;59.334;18.034;2023-04-06T23:02:58;1.90;;;1.80;;
9436;SDS011;4757;59.334;18.034;2023-04-06T23:05:27;2.50;;;1.73;;
9436;SDS011;4757;59.334;18.034;2023-04-06T23:07:53;2.40;;;2.00;;
9436;SDS011;4757;59.334;18.034;2023-04-06T23:10:20;2.37;;;2.17;;
9436;SDS011;4757;59.334;18.034;2023-04-06T23:12:48;2.67;;;2.23;;
9436;SDS011;4757;59.334;18.034;2023-04-06T23:15:14;2.40;;;1.90;;
9436;SDS011;4757;59.334;18.034;2023-04-06T23:17:42;2.50;;;1.80;;
9436;SDS011;4757;59.334;18.034;2023-04-06T23:20:09;2.93;;;2.53;;
9436;SDS011;4757;59.334;18.034;2023-04-06T23:22:36;2.70;;;2.17;;
9436;SDS011;4757;59.334;18.034;2023-04-06T23:25:04;3.27;;;1.80;;
9436;SDS011;4757;59.334;18.034;2023-04-06T23:27:32;1.90;;;1.70;;
9436;SDS011;4757;59.334;18.034;2023-04-06T23:29:59;2.43;;;2.00;;
9436;SDS011;4757;59.334;18.034;2023-04-06T23:32:26;2.30;;;2.10;;
9436;SDS011;4757;59.334;18.034;2023-04-06T23:34:54;2.47;;;2.27;;
9436;SDS011;4757;59.334;18.034;2023-04-06T23:37:21;2.13;;;1.93;;
9436;SDS011;4757;59.334;18.034;2023-04-06T23:39:48;2.63;;;1.87;;
9436;SDS011;4757;59.334;18.034;2023-04-06T23:42:15;2.43;;;2.03;;
9436;SDS011;4757;59.334;18.034;2023-04-06T23:44:42;3.67;;;1.97;;
9436;SDS011;4757;59.334;18.034;2023-04-06T23:47:09;2.33;;;2.13;;
9436;SDS011;4757;59.334;18.034;2023-04-06T23:49:37;2.43;;;2.10;;
9436;SDS011;4757;59.334;18.034;2023-04-06T23:52:04;2.53;;;2.33;;
9436;SDS011;4757;59.334;18.034;2023-04-06T23:57:28;2.10;;;1.90;;
